Time,TemperatureF,DewpointF,PressureIn,WindDirection,WindDirectionDegrees,WindSpeedMPH,WindSpeedGustMPH,Humidity,HourlyPrecipIn,Conditions,Clouds,dailyrainin,SoftwareType,DateUTC
2013-07-14 00:06:00,70.9,49.1,29.53,ESE,117,0.0,0.0,46,0.00,,,0.00,VWS V14.01,2013-07-14 04:06:00,
2013-07-14 00:21:00,70.7,48.9,29.50,ESE,117,0.0,0.0,46,0.00,,,0.00,VWS V14.01,2013-07-14 04:21:00,
2013-07-14 00:36:00,70.3,49.2,29.50,ESE,117,0.0,0.0,47,0.00,,,0.00,VWS V14.01,2013-07-14 04:36:00,
2013-07-14 00:51:00,70.0,49.4,29.50,ESE,117,0.0,0.0,48,0.00,,,0.00,VWS V14.01,2013-07-14 04:51:00,
2013-07-14 01:06:00,69.8,50.3,29.50,ESE,117,0.0,0.0,50,0.00,,,0.00,VWS V14.01,2013-07-14 05:06:00,
2013-07-14 01:21:00,69.8,51.4,29.50,West,276,0.0,0.0,52,0.00,,,0.00,VWS V14.01,2013-07-14 05:21:00,
2013-07-14 01:36:00,69.6,52.8,29.50,West,276,0.0,0.0,55,0.00,,,0.00,VWS V14.01,2013-07-14 05:36:00,
2013-07-14 01:51:00,69.4,53.6,29.53,West,276,0.0,0.0,57,0.00,,,0.00,VWS V14.01,2013-07-14 05:51:00,
2013-07-14 02:06:00,69.6,55.1,29.50,West,277,0.0,0.0,60,0.00,,,0.00,VWS V14.01,2013-07-14 06:06:00,
2013-07-14 02:21:00,69.6,56.0,29.50,West,277,0.0,0.0,62,0.00,,,0.00,VWS V14.01,2013-07-14 06:21:00,
2013-07-14 02:36:00,69.6,56.5,29.50,WNW,283,0.0,0.0,63,0.00,,,0.00,VWS V14.01,2013-07-14 06:36:00,
2013-07-14 02:51:00,69.3,56.1,29.50,WNW,283,0.0,0.0,63,0.00,,,0.00,VWS V14.01,2013-07-14 06:51:00,
2013-07-14 03:06:00,69.1,56.4,29.50,WNW,283,0.0,0.0,64,0.00,,,0.00,VWS V14.01,2013-07-14 07:06:00,
2013-07-14 03:21:00,69.1,56.8,29.50,WNW,285,0.0,0.0,65,0.00,,,0.00,VWS V14.01,2013-07-14 07:21:00,
2013-07-14 03:36:00,68.9,57.1,29.50,WNW,285,0.0,0.0,66,0.00,,,0.00,VWS V14.01,2013-07-14 07:36:00,
2013-07-14 03:51:00,68.9,57.5,29.50,West,280,0.0,0.0,67,0.00,,,0.00,VWS V14.01,2013-07-14 07:51:00,
2013-07-14 04:06:00,68.9,57.5,29.50,West,280,0.0,0.0,67,0.00,,,0.00,VWS V14.01,2013-07-14 08:06:00,
2013-07-14 04:21:00,68.7,57.7,29.50,West,281,0.0,0.0,68,0.00,,,0.00,VWS V14.01,2013-07-14 08:21:00,
2013-07-14 04:36:00,68.7,58.2,29.53,WNW,295,0.0,0.0,69,0.00,,,0.00,VWS V14.01,2013-07-14 08:36:00,
2013-07-14 04:51:00,68.7,58.2,29.53,WNW,295,0.0,0.0,69,0.00,,,0.00,VWS V14.01,2013-07-14 08:51:00,
2013-07-14 05:06:00,68.7,58.5,29.53,WNW,295,0.0,0.0,70,0.00,,,0.00,VWS V14.01,2013-07-14 09:06:00,
2013-07-14 05:21:00,68.7,58.5,29.53,WNW,295,0.0,0.0,70,0.00,,,0.00,VWS V14.01,2013-07-14 09:21:00,
2013-07-14 05:36:00,68.5,58.4,29.53,WNW,295,0.0,0.0,70,0.00,,,0.00,VWS V14.01,2013-07-14 09:36:00,
2013-07-14 05:51:00,68.4,58.2,29.53,WNW,295,0.0,0.0,70,0.00,,,0.00,VWS V14.01,2013-07-14 09:51:00,
2013-07-14 06:06:00,68.2,58.0,29.53,WNW,295,0.0,0.0,70,0.00,,,0.00,VWS V14.01,2013-07-14 10:06:00,
2013-07-14 06:21:00,68.0,57.9,29.53,WNW,295,0.0,0.0,70,0.00,,,0.00,VWS V14.01,2013-07-14 10:21:00,
2013-07-14 06:36:00,67.8,58.1,29.53,WNW,295,0.0,0.0,71,0.00,,,0.00,VWS V14.01,2013-07-14 10:36:00,
2013-07-14 06:51:00,67.8,58.1,29.53,WNW,295,0.0,0.0,71,0.00,,,0.00,VWS V14.01,2013-07-14 10:51:00,
2013-07-14 07:06:00,68.0,58.3,29.53,WNW,295,0.0,0.0,71,0.00,,,0.00,VWS V14.01,2013-07-14 11:06:00,
2013-07-14 07:21:00,68.2,58.4,29.56,WNW,295,0.0,0.0,71,0.00,,,0.00,VWS V14.01,2013-07-14 11:21:00,
2013-07-14 07:36:00,68.7,59.3,29.56,SSW,194,0.0,0.0,72,0.00,,,0.00,VWS V14.01,2013-07-14 11:36:00,
2013-07-14 07:51:00,70.2,61.5,29.56,SSE,168,0.0,0.0,74,0.00,,,0.00,VWS V14.01,2013-07-14 11:51:00,
2013-07-14 08:06:00,72.1,63.8,29.56,NW,322,0.0,0.0,75,0.00,,,0.00,VWS V14.01,2013-07-14 12:06:00,
2013-07-14 08:21:00,73.8,64.2,29.56,North,353,0.0,0.0,72,0.00,,,0.00,VWS V14.01,2013-07-14 12:21:00,
2013-07-14 08:36:00,74.8,59.6,29.56,NE,41,0.0,0.0,59,0.00,,,0.00,VWS V14.01,2013-07-14 12:36:00,
2013-07-14 08:51:00,75.2,49.2,29.56,East,79,0.0,0.0,40,0.00,,,0.00,VWS V14.01,2013-07-14 12:51:00,
2013-07-14 09:06:00,76.6,47.0,29.59,NE,42,0.0,0.0,35,0.00,,,0.00,VWS V14.01,2013-07-14 13:06:00,
2013-07-14 09:21:00,77.0,44.1,29.59,East,100,0.0,0.0,31,0.00,,,0.00,VWS V14.01,2013-07-14 13:21:00,
2013-07-14 09:36:00,78.1,44.2,29.59,ENE,59,0.0,0.0,30,0.00,,,0.00,VWS V14.01,2013-07-14 13:36:00,
2013-07-14 09:51:00,80.4,40.4,29.59,ESE,114,0.0,0.0,24,0.00,,,0.00,VWS V14.01,2013-07-14 13:51:00,
2013-07-14 10:06:00,81.5,37.8,29.59,SE,140,0.0,0.0,21,0.00,,,0.00,VWS V14.01,2013-07-14 14:06:00,
2013-07-14 10:21:00,80.4,37.0,29.59,SSE,167,0.0,0.0,21,0.00,,,0.00,VWS V14.01,2013-07-14 14:21:00,
2013-07-14 10:36:00,81.0,36.2,29.59,South,184,0.0,7.6,20,0.00,,,0.00,VWS V14.01,2013-07-14 14:36:00,
2013-07-14 10:51:00,82.9,36.5,29.59,ESE,111,2.7,5.8,19,0.00,,,0.00,VWS V14.01,2013-07-14 14:51:00,
2013-07-14 11:06:00,84.7,36.6,29.59,South,176,0.0,6.3,18,0.00,,,0.00,VWS V14.01,2013-07-14 15:06:00,
2013-07-14 11:21:00,85.1,33.9,29.59,North,353,0.0,6.3,16,0.00,,,0.00,VWS V14.01,2013-07-14 15:21:00,
2013-07-14 11:36:00,85.3,34.1,29.59,East,84,0.0,5.8,16,0.00,,,0.00,VWS V14.01,2013-07-14 15:36:00,
2013-07-14 11:51:00,85.5,34.2,29.59,SSE,149,0.0,5.8,16,0.00,,,0.00,VWS V14.01,2013-07-14 15:51:00,
2013-07-14 12:06:00,84.9,33.8,29.59,WSW,254,0.0,4.0,16,0.00,,,0.00,VWS V14.01,2013-07-14 16:06:00,
2013-07-14 12:21:00,85.5,34.2,29.59,SSE,154,2.7,6.3,16,0.00,,,0.00,VWS V14.01,2013-07-14 16:21:00,
2013-07-14 12:36:00,85.8,34.5,29.59,NNE,27,0.0,6.3,16,0.00,,,0.00,VWS V14.01,2013-07-14 16:36:00,
2013-07-14 12:51:00,84.7,33.6,29.59,East,101,0.0,5.4,16,0.00,,,0.00,VWS V14.01,2013-07-14 16:51:00,
2013-07-14 13:06:00,86.0,34.6,29.59,South,175,4.0,5.8,16,0.00,,,0.00,VWS V14.01,2013-07-14 17:06:00,
2013-07-14 13:21:00,86.0,34.6,29.59,NW,307,0.0,4.9,16,0.00,,,0.00,VWS V14.01,2013-07-14 17:21:00,
2013-07-14 13:36:00,86.4,34.9,29.59,South,191,4.0,5.8,16,0.00,,,0.00,VWS V14.01,2013-07-14 17:36:00,
2013-07-14 13:51:00,87.4,35.8,29.59,SE,135,2.7,6.7,16,0.00,,,0.00,VWS V14.01,2013-07-14 17:51:00,
2013-07-14 14:06:00,88.2,34.7,29.59,NNW,344,3.6,8.3,15,0.00,,,0.00,VWS V14.01,2013-07-14 18:06:00,
2013-07-14 14:21:00,88.3,34.9,29.59,SW,225,5.8,6.3,15,0.00,,,0.00,VWS V14.01,2013-07-14 18:21:00,
2013-07-14 14:36:00,89.2,35.6,29.59,ESE,102,0.0,5.8,15,0.00,,,0.00,VWS V14.01,2013-07-14 18:36:00,
2013-07-14 14:51:00,89.4,35.7,29.59,ESE,102,0.0,8.1,15,0.00,,,0.00,VWS V14.01,2013-07-14 18:51:00,
2013-07-14 15:06:00,89.6,35.9,29.59,SSW,192,0.0,6.3,15,0.00,,,0.00,VWS V14.01,2013-07-14 19:06:00,
2013-07-14 15:21:00,89.8,36.0,29.59,WNW,303,0.0,4.9,15,0.00,,,0.00,VWS V14.01,2013-07-14 19:21:00,
2013-07-14 15:36:00,88.7,35.2,29.59,SSW,206,4.9,4.9,15,0.00,,,0.00,VWS V14.01,2013-07-14 19:36:00,
2013-07-14 15:51:00,87.8,34.5,29.59,WNW,289,0.0,5.4,15,0.00,,,0.00,VWS V14.01,2013-07-14 19:51:00,
2013-07-14 16:06:00,88.2,34.7,29.59,SW,217,0.0,0.0,15,0.00,,,0.00,VWS V14.01,2013-07-14 20:06:00,
2013-07-14 16:21:00,89.1,35.5,29.56,WNW,286,0.0,0.0,15,0.00,,,0.00,VWS V14.01,2013-07-14 20:21:00,
2013-07-14 16:36:00,88.7,35.2,29.56,SW,221,0.0,4.0,15,0.00,,,0.00,VWS V14.01,2013-07-14 20:36:00,
2013-07-14 16:51:00,87.6,35.9,29.56,West,278,0.0,4.0,16,0.00,,,0.00,VWS V14.01,2013-07-14 20:51:00,
2013-07-14 17:06:00,86.4,34.9,29.56,SW,219,0.0,0.0,16,0.00,,,0.00,VWS V14.01,2013-07-14 21:06:00,
2013-07-14 17:21:00,86.7,35.2,29.56,WNW,285,0.0,0.0,16,0.00,,,0.00,VWS V14.01,2013-07-14 21:21:00,
2013-07-14 17:36:00,86.5,35.1,29.56,West,281,0.0,0.0,16,0.00,,,0.00,VWS V14.01,2013-07-14 21:36:00,
2013-07-14 17:51:00,84.9,33.8,29.56,WNW,295,0.0,0.0,16,0.00,,,0.00,VWS V14.01,2013-07-14 21:51:00,
2013-07-14 18:06:00,83.3,32.5,29.56,West,278,0.0,0.0,16,0.00,,,0.00,VWS V14.01,2013-07-14 22:06:00,
2013-07-14 18:21:00,82.6,36.2,29.56,WNW,286,0.0,0.0,19,0.00,,,0.00,VWS V14.01,2013-07-14 22:21:00,
2013-07-14 18:36:00,82.2,35.9,29.56,WNW,295,0.0,0.0,19,0.00,,,0.00,VWS V14.01,2013-07-14 22:36:00,
2013-07-14 18:51:00,81.1,36.3,29.56,WSW,246,0.0,0.0,20,0.00,,,0.00,VWS V14.01,2013-07-14 22:51:00,
2013-07-14 19:06:00,80.1,35.4,29.56,WSW,246,0.0,0.0,20,0.00,,,0.00,VWS V14.01,2013-07-14 23:06:00,
2013-07-14 19:21:00,79.7,35.1,29.56,WSW,246,0.0,0.0,20,0.00,,,0.00,VWS V14.01,2013-07-14 23:21:00,
2013-07-14 19:36:00,78.8,35.6,29.56,WSW,246,0.0,0.0,21,0.00,,,0.00,VWS V14.01,2013-07-14 23:36:00,
2013-07-14 19:51:00,78.4,35.3,29.56,WSW,246,0.0,0.0,21,0.00,,,0.00,VWS V14.01,2013-07-14 23:51:00,
2013-07-14 20:06:00,77.5,35.7,29.56,WSW,246,0.0,0.0,22,0.00,,,0.00,VWS V14.01,2013-07-15 00:06:00,
2013-07-14 20:21:00,77.2,35.4,29.59,WSW,246,0.0,0.0,22,0.00,,,0.00,VWS V14.01,2013-07-15 00:21:00,
2013-07-14 20:36:00,76.6,37.2,29.59,WSW,246,0.0,0.0,24,0.00,,,0.00,VWS V14.01,2013-07-15 00:36:00,
2013-07-14 20:51:00,75.9,36.6,29.59,WSW,246,0.0,0.0,24,0.00,,,0.00,VWS V14.01,2013-07-15 00:51:00,
2013-07-14 21:06:00,75.2,37.0,29.59,WSW,246,0.0,0.0,25,0.00,,,0.00,VWS V14.01,2013-07-15 01:06:00,
2013-07-14 21:21:00,74.8,38.7,29.59,WSW,246,0.0,0.0,27,0.00,,,0.00,VWS V14.01,2013-07-15 01:21:00,
2013-07-14 21:36:00,74.1,40.7,29.59,WSW,246,0.0,0.0,30,0.00,,,0.00,VWS V14.01,2013-07-15 01:36:00,
2013-07-14 21:51:00,73.8,41.3,29.62,WSW,246,0.0,0.0,31,0.00,,,0.00,VWS V14.01,2013-07-15 01:51:00,
2013-07-14 22:06:00,73.4,41.8,29.62,WSW,246,0.0,0.0,32,0.00,,,0.00,VWS V14.01,2013-07-15 02:06:00,
2013-07-14 22:21:00,72.9,42.9,29.62,WSW,246,0.0,0.0,34,0.00,,,0.00,VWS V14.01,2013-07-15 02:21:00,
2013-07-14 22:36:00,72.5,43.3,29.62,WSW,246,0.0,0.0,35,0.00,,,0.00,VWS V14.01,2013-07-15 02:36:00,
2013-07-14 22:51:00,72.3,43.9,29.62,WSW,246,0.0,0.0,36,0.00,,,0.00,VWS V14.01,2013-07-15 02:51:00,
2013-07-14 23:06:00,72.0,45.0,29.62,WSW,246,0.0,0.0,38,0.00,,,0.00,VWS V14.01,2013-07-15 03:06:00,
2013-07-14 23:21:00,71.8,46.2,29.62,WSW,246,0.0,0.0,40,0.00,,,0.00,VWS V14.01,2013-07-15 03:21:00,
2013-07-14 23:36:00,71.4,47.2,29.62,WSW,246,0.0,0.0,42,0.00,,,0.00,VWS V14.01,2013-07-15 03:36:00,
2013-07-14 23:51:00,71.2,47.6,29.62,WSW,246,0.0,0.0,43,0.00,,,0.00,VWS V14.01,2013-07-15 03:51:00,